Time;durP1;ratioP1;P1;durP2;ratioP2;P2;SDS_P1;SDS_P2;PMS_P1;PMS_P2;Temp;Humidity;BMP_temperature;BMP_pressure;BME280_temperature;BME280_humidity;BME280_pressure;Samples;Min_cycle;Max_cycle;Signal;HPM_P1;HPM_P2
2021/03/07 00:01:41;;;;;;;59.63;23.57;;;;;;;-2.43;72.39;100094.75;4595173;76;21139;-83
2021/03/07 00:07:48;;;;;;;52.10;22.07;;;;;;;-2.40;72.45;100090.20;4587987;75;21179;-84
2021/03/07 00:13:50;;;;;;;;;;;;;;;-2.35;72.50;100094.20;4600339;76;22263;-83
2021/03/07 00:19:51;;;;;;;58.50;21.90;;;;;;;-2.37;72.72;100088.85;4584379;76;20180;-83
2021/03/07 00:25:53;;;;;;;59.10;22.30;;;;;;;-2.39;72.94;100093.14;4590728;76;21173;-83
2021/03/07 00:31:55;;;;;;;42.77;17.67;;;;;;;-2.43;72.63;100084.55;4589068;75;21183;-83
2021/03/07 00:37:58;;;;;;;35.37;15.73;;;;;;;-2.37;73.33;100067.40;4563009;75;21279;-83
2021/03/07 00:43:59;;;;;;;41.03;17.10;;;;;;;-2.34;72.87;100053.45;4545606;76;21313;-83
2021/03/07 00:50:13;;;;;;;38.17;15.37;;;;;;;-2.31;73.15;100034.16;4545614;76;21169;-84
2021/03/07 00:56:14;;;;;;;37.10;15.97;;;;;;;-2.21;73.23;100015.41;4553125;76;21233;-82
2021/03/07 01:02:17;;;;;;;46.43;17.20;;;;;;;-2.18;72.54;100009.50;4555360;77;21162;-82
2021/03/07 01:08:18;;;;;;;38.83;16.53;;;;;;;-2.23;72.43;99990.72;4557259;77;21187;-83
2021/03/07 01:14:20;;;;;;;45.60;18.17;;;;;;;-2.21;72.45;99979.97;4559194;77;21167;-83
2021/03/07 01:20:22;;;;;;;46.17;19.13;;;;;;;-2.25;72.34;99980.25;4555089;76;21158;-83
2021/03/07 01:26:24;;;;;;;29.70;14.93;;;;;;;-2.27;72.69;99976.24;4549045;76;21139;-83
2021/03/07 01:32:26;;;;;;;38.13;16.90;;;;;;;-2.33;72.48;99960.67;4552495;76;21179;-83
2021/03/07 01:38:30;;;;;;;34.20;13.97;;;;;;;-2.36;72.68;99948.33;4557056;76;21170;-82
2021/03/07 01:44:32;;;;;;;34.33;15.30;;;;;;;-2.42;72.54;99936.80;4563587;77;21191;-83
2021/03/07 01:50:39;;;;;;;32.97;13.67;;;;;;;-2.46;72.72;99927.67;4559702;76;21272;-83
2021/03/07 01:56:40;;;;;;;29.63;13.67;;;;;;;-2.52;72.89;99909.19;4558256;76;21643;-82
2021/03/07 02:02:43;;;;;;;34.47;14.73;;;;;;;-2.55;72.96;99898.45;4560549;76;21161;-82
2021/03/07 02:08:44;;;;;;;28.30;14.03;;;;;;;-2.56;72.88;99899.53;4560967;76;21162;-82
2021/03/07 02:14:48;;;;;;;30.77;13.60;;;;;;;-2.58;73.02;99899.52;4559214;76;21189;-82
2021/03/07 02:21:07;;;;;;;31.40;13.43;;;;;;;-2.60;72.93;99897.66;4558924;76;21150;-81
2021/03/07 02:27:08;;;;;;;31.00;14.13;;;;;;;-2.60;72.75;99893.08;4561280;76;21151;-81
2021/03/07 02:33:33;;;;;;;31.03;13.53;;;;;;;-2.63;72.91;99886.91;4560066;76;21169;-80
2021/03/07 02:39:39;;;;;;;28.60;12.20;;;;;;;-2.60;72.70;99880.23;4575371;76;21153;-81
2021/03/07 02:45:45;;;;;;;26.25;11.70;;;;;;;-2.57;72.77;99879.70;4582188;76;21282;-80
2021/03/07 02:51:49;;;;;;;27.62;12.98;;;;;;;-2.54;72.47;99883.99;4580233;76;21146;-80
2021/03/07 02:57:52;;;;;;;28.83;12.23;;;;;;;-2.65;72.25;99877.55;4581677;76;21745;-81
2021/03/07 03:03:54;;;;;;;25.80;11.53;;;;;;;-2.74;72.60;99876.48;4575328;76;21351;-80
2021/03/07 03:09:56;;;;;;;27.17;13.97;;;;;;;-2.73;72.70;99871.37;4581724;76;21189;-80
2021/03/07 03:15:59;;;;;;;26.60;12.70;;;;;;;-2.78;72.51;99868.16;4584294;76;21194;-80
2021/03/07 03:22:02;;;;;;;28.67;12.60;;;;;;;-2.84;72.41;99873.25;4575581;76;21696;-79
2021/03/07 03:28:04;;;;;;;28.37;12.43;;;;;;;-2.87;72.67;99864.93;4586693;76;21159;-79
2021/03/07 03:34:08;;;;;;;28.20;13.57;;;;;;;-2.89;72.81;99867.88;4592938;76;21578;-80
2021/03/07 03:40:18;;;;;;;22.33;11.07;;;;;;;-2.87;73.10;99870.29;4587190;76;21287;-80
2021/03/07 03:46:22;;;;;;;24.70;12.03;;;;;;;-2.90;72.91;99874.31;4571361;76;29134;-78
2021/03/07 03:52:25;;;;;;;21.60;11.30;;;;;;;-2.91;73.11;99867.33;4488814;77;21137;-79
2021/03/07 03:58:32;;;;;;;24.57;11.33;;;;;;;-2.98;73.07;99861.97;4494875;77;21181;-79
2021/03/07 04:04:33;;;;;;;28.73;12.53;;;;;;;-2.99;73.21;99861.70;4483778;77;21325;-80
2021/03/07 04:10:36;;;;;;;63.87;21.43;;;;;;;-3.04;73.00;99865.19;4493030;77;21135;-78
2021/03/07 04:16:38;;;;;;;23.33;12.83;;;;;;;-3.08;73.52;99856.05;4494499;77;21089;-79
2021/03/07 04:22:40;;;;;;;27.17;12.27;;;;;;;-3.10;73.51;99864.88;4485563;77;21794;-79
2021/03/07 04:28:43;;;;;;;50.50;19.77;;;;;;;-3.03;73.49;99855.25;4494057;77;21162;-79
2021/03/07 04:34:46;;;;;;;41.20;16.47;;;;;;;-3.06;73.19;99851.25;4488180;78;21138;-79
2021/03/07 04:40:48;;;;;;;86.97;29.30;;;;;;;-3.11;73.14;99855.25;4489224;77;21165;-79
2021/03/07 04:46:49;;;;;;;104.33;32.33;;;;;;;-3.15;73.19;99848.02;4491964;77;21148;-78
2021/03/07 04:52:50;;;;;;;50.70;19.23;;;;;;;-3.15;73.26;99846.15;4497161;77;21192;-78
2021/03/07 04:58:53;;;;;;;26.37;12.40;;;;;;;-3.29;73.55;99831.66;4493406;77;21190;-78
2021/03/07 05:04:54;;;;;;;35.30;14.00;;;;;;;-3.34;74.12;99817.73;4492954;77;21468;-79
2021/03/07 05:10:57;;;;;;;29.73;12.27;;;;;;;-3.29;74.64;99798.97;4495815;77;21147;-78
2021/03/07 05:16:59;;;;;;;23.50;11.57;;;;;;;-3.26;74.46;99795.77;4495253;77;21116;-78
2021/03/07 05:23:01;;;;;;;25.23;12.40;;;;;;;-3.25;74.47;99788.55;4490084;77;21163;-81
2021/03/07 05:29:03;;;;;;;23.10;11.17;;;;;;;-3.23;74.57;99782.39;4485407;77;21805;-78
2021/03/07 05:35:05;;;;;;;31.17;13.00;;;;;;;-3.29;75.00;99778.11;4492928;77;21604;-78
2021/03/07 05:41:10;;;;;;;32.47;14.13;;;;;;;-3.25;74.91;99777.31;4501800;77;21196;-78
2021/03/07 05:47:11;;;;;;;25.63;13.03;;;;;;;-3.22;74.93;99779.45;4500486;77;21185;-78
2021/03/07 05:53:13;;;;;;;27.77;13.77;;;;;;;-3.21;74.73;99781.05;4504889;77;21149;-78
2021/03/07 05:59:15;;;;;;;29.97;12.90;;;;;;;-3.19;74.83;99774.64;4502925;77;21859;-81
2021/03/07 06:05:17;;;;;;;30.47;13.77;;;;;;;-3.22;75.32;99775.96;4506035;77;21346;-78
2021/03/07 06:11:34;;;;;;;26.67;14.43;;;;;;;-3.10;75.52;99771.70;4498744;77;21194;-78
2021/03/07 06:17:43;;;;;;;26.67;14.77;;;;;;;-2.85;75.88;99763.66;4501320;77;21177;-77
2021/03/07 06:23:45;;;;;;;30.70;14.53;;;;;;;-2.50;76.02;99768.43;4503026;77;21141;-79
2021/03/07 06:30:09;;;;;;;29.73;15.50;;;;;;;-2.05;75.89;99764.84;4502692;77;21185;-79
2021/03/07 06:36:16;;;;;;;31.27;16.50;;;;;;;-1.52;75.77;99772.09;4504693;77;21303;-79
2021/03/07 06:42:19;;;;;;;35.80;17.87;;;;;;;-1.05;75.40;99774.20;4476370;78;21129;-79
2021/03/07 06:48:35;;;;;;;34.43;16.83;;;;;;;-0.65;74.93;99769.28;4469087;78;21186;-79
2021/03/07 06:54:36;;;;;;;33.10;15.60;;;;;;;-0.32;74.43;99775.16;4468964;78;21733;-80
2021/03/07 07:00:39;;;;;;;27.47;14.20;;;;;;;-0.15;74.14;99763.92;4470122;78;21625;-80
2021/03/07 07:06:43;;;;;;;28.23;14.77;;;;;;;-0.04;73.55;99760.84;4478735;78;21154;-80
2021/03/07 07:12:44;;;;;;;32.35;15.25;;;;;;;0.22;73.42;99751.89;4475046;78;21227;-81
2021/03/07 07:18:49;;;;;;;35.43;16.60;;;;;;;0.46;72.81;99745.92;4478322;78;21633;-81
2021/03/07 07:24:50;;;;;;;32.65;15.63;;;;;;;0.71;72.52;99744.75;4474623;78;21155;-81
2021/03/07 07:30:55;;;;;;;39.03;17.82;;;;;;;1.03;72.22;99736.17;4464839;78;21325;-82
2021/03/07 07:37:09;;;;;;;37.37;17.33;;;;;;;1.37;71.78;99739.36;4477646;78;21168;-81
2021/03/07 07:43:11;;;;;;;36.40;18.15;;;;;;;1.59;70.71;99727.90;4349199;80;21392;-82
2021/03/07 07:49:35;;;;;;;37.30;18.67;;;;;;;1.93;70.26;99724.26;4350317;80;21760;-81
2021/03/07 07:55:50;;;;;;;34.27;17.23;;;;;;;2.41;70.42;99720.56;4303934;81;21169;-82
2021/03/07 08:01:56;;;;;;;18.30;9.03;;;;;;;2.82;69.31;99705.80;4355334;80;21330;-82
2021/03/07 08:08:09;;;;;;;20.50;10.60;;;;;;;3.02;67.85;99693.12;4357432;80;21307;-82
2021/03/07 08:14:12;;;;;;;18.15;11.03;;;;;;;3.22;67.22;99682.36;4317874;80;21620;-81
2021/03/07 08:20:36;;;;;;;21.33;10.93;;;;;;;3.50;66.99;99675.66;4457132;78;21139;-82
2021/03/07 08:26:50;;;;;;;19.05;9.88;;;;;;;3.82;65.73;99669.88;4344417;78;24456;-82
2021/03/07 08:32:53;;;;;;;17.35;9.73;;;;;;;3.99;64.92;99663.72;4162549;83;21984;-83
2021/03/07 08:39:03;;;;;;;16.77;8.85;;;;;;;4.15;63.76;99658.87;4219721;82;21139;-83
2021/03/07 08:45:19;;;;;;;15.95;8.15;;;;;;;4.36;63.61;99648.22;4157344;84;21281;-83
2021/03/07 08:51:32;;;;;;;16.85;8.53;;;;;;;4.95;63.14;99645.25;4315826;80;21668;-83
2021/03/07 08:57:33;;;;;;;13.93;8.03;;;;;;;5.24;61.39;99624.97;4311968;80;21164;-83
2021/03/07 09:03:35;;;;;;;14.78;8.38;;;;;;;6.13;60.08;99614.08;4325868;80;21572;-82
2021/03/07 09:09:43;;;;;;;13.65;8.70;;;;;;;6.78;60.57;99606.56;4321978;80;21195;-83
2021/03/07 09:15:56;;;;;;;14.73;8.38;;;;;;;7.69;58.86;99599.34;4390958;79;25450;-82
2021/03/07 09:22:25;;;;;;;15.40;8.60;;;;;;;8.09;57.52;99594.77;4458372;78;21152;-82
2021/03/07 09:28:54;;;;;;;12.33;7.00;;;;;;;8.57;56.74;99586.47;4457181;78;21168;-84
2021/03/07 09:34:59;;;;;;;13.00;7.08;;;;;;;8.79;55.94;99576.37;4461101;78;21148;-83
2021/03/07 09:41:00;;;;;;;12.20;7.25;;;;;;;9.31;55.04;99557.85;4413176;78;40975;-84
2021/03/07 09:47:02;;;;;;;17.67;9.15;;;;;;;9.45;53.21;99554.09;4225574;83;21203;-85
2021/03/07 09:53:25;;;;;;;11.35;7.10;;;;;;;9.05;51.20;99544.48;4225034;83;21182;-84
2021/03/07 09:59:48;;;;;;;13.40;7.30;;;;;;;9.28;50.57;99541.36;4222610;83;21291;-84
2021/03/07 10:06:19;;;;;;;13.83;6.35;;;;;;;9.94;52.30;99531.78;4220818;83;21177;-85
2021/03/07 10:12:40;;;;;;;12.20;7.20;;;;;;;10.13;51.15;99527.14;4220750;83;21173;-85
2021/03/07 10:19:06;;;;;;;12.75;7.20;;;;;;;10.02;48.19;99513.81;4224196;83;21157;-85
2021/03/07 10:32:33;;;;;;;15.60;8.75;;;;;;;10.53;49.03;99501.59;4223432;84;21109;-86
2021/03/07 10:38:41;;;;;;;13.38;8.63;;;;;;;10.15;47.22;99502.19;4215928;82;21212;-89
2021/03/07 10:44:43;;;;;;;14.58;8.85;;;;;;;10.23;47.21;99489.64;4231180;82;21152;-88
2021/03/07 10:50:49;;;;;;;17.25;8.63;;;;;;;10.87;46.57;99482.84;4255833;82;21224;-92
2021/03/07 10:56:51;;;;;;;15.33;8.33;;;;;;;10.93;46.15;99471.80;4267655;82;21176;-90
2021/03/07 11:02:54;;;;;;;15.48;8.60;;;;;;;10.80;45.08;99459.46;4263247;82;21185;-89
2021/03/07 11:08:55;;;;;;;12.20;7.92;;;;;;;10.05;45.59;99455.65;4263941;82;21203;-89
2021/03/07 11:14:57;;;;;;;9.73;6.50;;;;;;;10.26;45.22;99442.97;4263862;81;21247;-90
2021/03/07 11:20:59;;;;;;;15.95;8.25;;;;;;;10.52;44.80;99425.30;4261273;82;21295;-90
2021/03/07 11:27:01;;;;;;;11.70;7.78;;;;;;;10.49;44.09;99407.64;4264034;82;21208;-90
2021/03/07 11:33:02;;;;;;;10.70;7.17;;;;;;;10.65;42.83;99397.38;4261455;82;21263;-90
2021/03/07 11:39:06;;;;;;;10.35;5.22;;;;;;;10.67;43.70;99382.75;4271529;81;21751;-92
2021/03/07 11:45:16;;;;;;;11.25;7.40;;;;;;;10.60;41.92;99377.73;4350297;79;28909;-87
2021/03/07 11:51:19;;;;;;;8.73;6.22;;;;;;;10.78;38.78;99359.07;4134143;81;30356;-86
2021/03/07 11:57:20;;;;;;;13.35;8.10;;;;;;;9.98;40.15;99351.56;4079555;87;21461;-86
2021/03/07 12:03:22;;;;;;;6.85;5.00;;;;;;;9.48;40.13;99348.99;4095328;83;31510;-89
2021/03/07 12:09:24;;;;;;;9.70;5.58;;;;;;;9.08;40.70;99338.96;4214977;83;21174;-86
2021/03/07 12:15:25;;;;;;;9.08;6.03;;;;;;;8.89;41.19;99334.25;4211847;83;21210;-86
2021/03/07 12:21:27;;;;;;;12.95;6.35;;;;;;;8.78;40.86;99322.86;4210307;83;21166;-87
2021/03/07 12:27:29;;;;;;;9.23;5.78;;;;;;;8.47;40.54;99314.70;4210836;83;21789;-86
2021/03/07 12:33:30;;;;;;;11.38;5.97;;;;;;;8.20;41.00;99297.82;4220156;83;21775;-86
2021/03/07 12:39:32;;;;;;;8.95;5.97;;;;;;;8.44;41.28;99284.81;4161821;82;27176;-86
2021/03/07 12:45:34;;;;;;;10.70;5.85;;;;;;;8.45;41.39;99289.14;4116866;84;21208;-85
2021/03/07 12:51:36;;;;;;;9.93;5.75;;;;;;;8.30;39.67;99272.20;4120452;84;21246;-86
2021/03/07 12:57:39;;;;;;;8.65;6.12;;;;;;;7.92;40.58;99261.09;4112184;85;21194;-89
2021/03/07 13:03:40;;;;;;;9.85;5.28;;;;;;;7.56;40.77;99248.45;4120609;84;21675;-89
2021/03/07 13:09:42;;;;;;;11.33;5.62;;;;;;;7.56;40.83;99239.52;4115260;85;21231;-86
2021/03/07 13:15:44;;;;;;;8.13;4.90;;;;;;;7.49;40.71;99230.58;4118137;86;21830;-86
2021/03/07 13:21:45;;;;;;;9.70;5.78;;;;;;;7.51;40.62;99225.58;4110771;84;22064;-88
2021/03/07 13:27:47;;;;;;;9.40;5.72;;;;;;;7.48;40.93;99221.39;4118148;84;21684;-87
2021/03/07 13:33:49;;;;;;;9.03;5.35;;;;;;;7.41;40.53;99211.66;4114150;85;21176;-86
2021/03/07 13:39:50;;;;;;;9.23;5.15;;;;;;;7.40;40.77;99202.71;4114521;85;21191;-87
2021/03/07 13:45:52;;;;;;;8.15;4.85;;;;;;;7.36;40.00;99192.27;4149141;84;22550;-87
2021/03/07 13:51:54;;;;;;;8.60;5.45;;;;;;;7.27;40.81;99183.48;4147371;84;21261;-87
2021/03/07 13:57:57;;;;;;;10.10;5.12;;;;;;;7.13;40.14;99175.48;4146313;85;21667;-86
2021/03/07 14:03:59;;;;;;;11.10;4.97;;;;;;;7.04;40.26;99169.41;4149884;84;21203;-87
2021/03/07 14:10:00;;;;;;;10.58;5.72;;;;;;;7.11;40.75;99154.66;4152212;84;21217;-87
2021/03/07 14:16:03;;;;;;;13.88;4.62;;;;;;;7.10;40.34;99147.61;4154665;84;21223;-87
2021/03/07 14:22:04;;;;;;;9.45;5.03;;;;;;;7.13;39.91;99140.91;4152303;84;21215;-87
2021/03/07 14:28:06;;;;;;;10.08;5.10;;;;;;;7.04;40.20;99132.11;4142823;84;21274;-87
2021/03/07 14:34:07;;;;;;;9.10;5.05;;;;;;;7.01;39.88;99112.95;4140025;84;21210;-87
2021/03/07 14:40:11;;;;;;;10.38;5.60;;;;;;;7.11;40.42;99120.03;4193766;83;25814;-87
2021/03/07 14:46:13;;;;;;;9.45;4.55;;;;;;;7.26;40.61;99113.84;4137499;85;21260;-87
2021/03/07 14:52:14;;;;;;;12.75;5.97;;;;;;;7.21;40.63;99101.84;4134629;85;21829;-86
2021/03/07 14:58:16;;;;;;;9.10;5.30;;;;;;;7.02;39.98;99097.63;4146185;85;21287;-87
2021/03/07 15:04:18;;;;;;;9.95;5.85;;;;;;;6.83;39.71;99088.56;4139513;85;21202;-87
2021/03/07 15:10:20;;;;;;;11.85;6.50;;;;;;;6.57;39.45;99090.37;4116396;85;21225;-85
2021/03/07 15:16:24;;;;;;;13.62;6.37;;;;;;;6.33;39.52;99091.23;4125198;85;21218;-85
2021/03/07 15:22:27;;;;;;;12.58;6.08;;;;;;;6.09;40.11;99078.28;4139732;85;21235;-88
2021/03/07 15:28:29;;;;;;;11.60;6.08;;;;;;;5.86;40.63;99075.25;4128217;85;21239;-86
2021/03/07 15:34:31;;;;;;;12.03;6.45;;;;;;;5.65;40.73;99071.06;4071040;87;21239;-86
2021/03/07 15:40:32;;;;;;;18.40;7.37;;;;;;;5.47;41.21;99067.78;4101511;83;22116;-86
2021/03/07 15:46:34;;;;;;;13.88;6.80;;;;;;;5.30;41.62;99068.56;4246369;83;21199;-86
2021/03/07 15:52:36;;;;;;;16.02;8.48;;;;;;;5.13;42.14;99065.50;4243491;83;21662;-86
2021/03/07 15:58:38;;;;;;;16.52;7.92;;;;;;;4.98;42.52;99059.35;4239019;83;21159;-86
2021/03/07 16:04:39;;;;;;;14.80;8.15;;;;;;;4.83;43.08;99069.50;4231386;83;21294;-86
2021/03/07 16:10:41;;;;;;;15.35;8.63;;;;;;;4.65;43.61;99074.30;4245046;83;22377;-87
2021/03/07 16:16:42;;;;;;;16.52;9.20;;;;;;;4.48;44.42;99064.17;4241443;83;21583;-86
2021/03/07 16:22:44;;;;;;;17.15;9.63;;;;;;;4.31;44.65;99067.04;4239532;83;21634;-86
2021/03/07 16:28:46;;;;;;;17.10;9.30;;;;;;;4.18;45.30;99069.48;4241654;83;21201;-86
2021/03/07 16:34:48;;;;;;;19.90;10.00;;;;;;;4.04;45.67;99073.02;4247343;83;21214;-87
2021/03/07 16:40:49;;;;;;;22.65;9.70;;;;;;;3.93;46.13;99075.88;4243194;83;21597;-86
2021/03/07 16:46:51;;;;;;;19.07;10.15;;;;;;;3.79;46.49;99073.98;4248760;83;21316;-86
2021/03/07 16:52:52;;;;;;;17.57;10.43;;;;;;;3.67;46.93;99078.73;4249268;83;21175;-86
2021/03/07 16:58:54;;;;;;;21.37;10.43;;;;;;;3.57;47.31;99088.57;4252680;83;21140;-86
2021/03/07 17:04:57;;;;;;;20.25;10.00;;;;;;;3.49;47.44;99088.08;4249897;83;21162;-87
2021/03/07 17:10:59;;;;;;;29.02;10.50;;;;;;;3.40;48.08;99093.30;4245312;83;21729;-87
2021/03/07 17:17:00;;;;;;;24.82;11.25;;;;;;;3.26;48.34;99090.79;4252176;83;21675;-86
2021/03/07 17:23:02;;;;;;;29.23;13.03;;;;;;;3.15;48.75;99095.77;4249116;83;21178;-85
2021/03/07 17:29:04;;;;;;;27.17;11.75;;;;;;;2.96;49.34;99105.39;4248217;83;21760;-86
2021/03/07 17:35:07;;;;;;;27.45;12.78;;;;;;;2.74;49.55;99101.54;4246290;83;21342;-86
2021/03/07 17:41:10;;;;;;;28.38;13.85;;;;;;;2.63;50.09;99098.94;4255358;83;21397;-87
2021/03/07 17:47:11;;;;;;;40.12;16.27;;;;;;;2.51;50.34;99095.52;4240652;83;21191;-87
2021/03/07 17:53:13;;;;;;;30.88;13.20;;;;;;;2.40;50.75;99104.25;4242088;83;21364;-86
2021/03/07 17:59:15;;;;;;;25.90;12.33;;;;;;;2.07;51.19;99089.08;4228907;83;22233;-89
2021/03/07 18:05:16;;;;;;;29.02;14.38;;;;;;;1.84;52.05;99091.69;4242516;83;21205;-85
2021/03/07 18:11:18;;;;;;;36.75;16.40;;;;;;;1.73;51.90;99094.98;4241514;83;21387;-85
2021/03/07 18:17:20;;;;;;;47.73;22.87;;;;;;;1.58;52.13;99087.57;4243429;83;21326;-86
2021/03/07 18:23:21;;;;;;;54.58;23.87;;;;;;;1.46;52.51;99091.44;4234120;83;21341;-86
2021/03/07 18:29:23;;;;;;;44.30;22.45;;;;;;;1.40;54.19;99082.45;4239768;83;21191;-85
2021/03/07 18:35:25;;;;;;;48.98;21.45;;;;;;;1.25;53.47;99082.88;4238405;83;21366;-85
2021/03/07 18:41:26;;;;;;;46.20;21.20;;;;;;;1.12;54.46;99079.73;4237992;83;21216;-85
2021/03/07 18:47:28;;;;;;;56.95;23.47;;;;;;;0.98;56.34;99070.94;4229002;83;22490;-86
2021/03/07 18:53:30;;;;;;;56.35;25.02;;;;;;;0.95;55.63;99071.02;4227953;83;21198;-86
2021/03/07 18:59:32;;;;;;;53.10;23.55;;;;;;;0.91;55.50;99069.26;4232907;83;21209;-88
2021/03/07 19:05:34;;;;;;;60.90;24.80;;;;;;;0.77;56.07;99061.78;4230160;83;21776;-87
2021/03/07 19:11:36;;;;;;;53.28;24.52;;;;;;;0.77;56.89;99067.98;4133207;85;21743;-86
2021/03/07 19:17:38;;;;;;;52.67;24.35;;;;;;;0.66;57.20;99084.16;4234569;83;21237;-89
2021/03/07 19:23:41;;;;;;;57.17;27.25;;;;;;;0.59;57.46;99075.73;4285140;82;21205;-89
2021/03/07 19:29:42;;;;;;;57.20;26.75;;;;;;;0.47;58.60;99073.36;4285158;82;22755;-86
2021/03/07 19:35:46;;;;;;;60.23;28.30;;;;;;;0.48;58.55;99072.24;4288261;82;21169;-86
2021/03/07 19:41:47;;;;;;;60.38;28.30;;;;;;;0.34;59.07;99072.86;4287372;82;21853;-86
2021/03/07 19:48:17;;;;;;;91.75;42.15;;;;;;;0.32;60.12;99070.47;4434346;78;22739;-87
2021/03/07 19:54:20;;;;;;;63.38;32.08;;;;;;;0.35;59.54;99075.78;4373139;80;21193;-86
2021/03/07 20:00:23;;;;;;;64.15;31.50;;;;;;;0.26;59.32;99073.05;4386563;80;21242;-84
2021/03/07 20:06:29;;;;;;;69.47;33.00;;;;;;;0.16;59.43;99069.23;4373613;80;22384;-85
2021/03/07 20:12:31;;;;;;;74.30;36.27;;;;;;;0.01;59.94;99070.95;4377039;80;21802;-85
2021/03/07 20:18:35;;;;;;;93.53;40.97;;;;;;;-0.17;62.16;99068.64;4385268;80;21149;-85
2021/03/07 20:24:37;;;;;;;88.93;39.53;;;;;;;-0.35;62.11;99068.25;4378066;80;21209;-85
2021/03/07 20:30:39;;;;;;;96.23;41.00;;;;;;;-0.37;62.44;99070.98;4375426;80;21232;-85
2021/03/07 20:36:41;;;;;;;94.67;42.07;;;;;;;-0.43;61.93;99072.99;4378169;80;21162;-85
2021/03/07 20:43:08;;;;;;;104.13;45.00;;;;;;;-0.42;63.25;99077.27;4519350;77;23376;-85
2021/03/07 20:49:10;;;;;;;90.80;43.23;;;;;;;-0.50;62.69;99077.20;4388247;79;21198;-86
2021/03/07 20:55:14;;;;;;;88.73;42.00;;;;;;;-0.57;62.40;99079.48;4337033;80;21230;-86
2021/03/07 21:01:16;;;;;;;104.80;45.43;;;;;;;-0.70;62.47;99083.77;4329690;81;21672;-85
2021/03/07 21:07:18;;;;;;;101.20;45.10;;;;;;;-0.78;63.21;99091.72;4328124;81;21225;-87
2021/03/07 21:13:20;;;;;;;102.70;45.73;;;;;;;-0.79;64.00;99088.79;4346031;81;22214;-85
2021/03/07 21:19:21;;;;;;;96.33;43.67;;;;;;;-0.82;64.33;99086.70;4336543;81;21196;-89
2021/03/07 21:25:24;;;;;;;106.83;45.97;;;;;;;-0.84;65.00;99077.59;4318474;81;21178;-85
2021/03/07 21:31:25;;;;;;;107.13;46.20;;;;;;;-0.86;65.21;99073.05;4345915;81;21374;-86
2021/03/07 21:37:28;;;;;;;115.67;48.30;;;;;;;-0.78;65.38;99084.45;4347868;81;21224;-85
2021/03/07 21:43:29;;;;;;;111.83;49.63;;;;;;;-0.76;65.16;99073.41;4329914;81;21632;-85
2021/03/07 21:49:31;;;;;;;119.43;51.27;;;;;;;-0.88;65.68;99083.33;4335863;81;21152;-86
2021/03/07 21:55:33;;;;;;;107.60;49.80;;;;;;;-0.82;66.45;99085.35;4340772;81;21212;-86
2021/03/07 22:01:35;;;;;;;127.27;56.73;;;;;;;-0.82;66.36;99076.75;4342667;81;21192;-85
2021/03/07 22:07:36;;;;;;;123.50;54.10;;;;;;;-0.93;66.46;99075.36;4343560;81;21656;-85
2021/03/07 22:13:38;;;;;;;131.13;57.03;;;;;;;-0.95;66.81;99078.87;4338682;81;21154;-85
2021/03/07 22:19:41;;;;;;;141.07;59.77;;;;;;;-0.96;67.09;99078.64;4327122;81;21182;-87
2021/03/07 22:25:43;;;;;;;154.03;64.10;;;;;;;-0.84;67.55;99076.25;4335053;81;21322;-85
2021/03/07 22:31:44;;;;;;;132.00;57.00;;;;;;;-0.66;67.91;99065.92;4340673;81;21209;-86
2021/03/07 22:37:46;;;;;;;130.80;56.80;;;;;;;-0.53;67.89;99062.97;4338228;81;21786;-85
2021/03/07 22:43:47;;;;;;;134.10;56.00;;;;;;;-0.45;67.62;99066.30;4343922;81;21222;-85
2021/03/07 22:49:49;;;;;;;119.47;54.20;;;;;;;-0.41;68.32;99062.70;4346829;81;21208;-84
2021/03/07 22:55:50;;;;;;;115.23;50.40;;;;;;;-0.34;68.89;99059.08;4345283;81;21257;-88
2021/03/07 23:01:52;;;;;;;118.20;50.77;;;;;;;-0.27;69.76;99053.28;4341136;81;21322;-85
2021/03/07 23:07:54;;;;;;;110.97;48.73;;;;;;;-0.28;68.64;99046.30;4347979;81;21805;-85
2021/03/07 23:13:56;;;;;;;107.20;47.07;;;;;;;-0.23;68.60;99049.69;4341931;81;21193;-85
2021/03/07 23:19:58;;;;;;;104.97;45.10;;;;;;;-0.27;69.23;99051.94;4342452;81;21207;-86
2021/03/07 23:25:59;;;;;;;101.23;44.57;;;;;;;-0.26;69.03;99048.14;4339059;81;21847;-86
2021/03/07 23:32:01;;;;;;;95.83;42.67;;;;;;;-0.22;68.98;99050.48;4339116;81;21194;-86
2021/03/07 23:38:03;;;;;;;98.20;43.57;;;;;;;-0.19;68.96;99054.69;4336912;81;21240;-87
2021/03/07 23:44:06;;;;;;;107.43;44.87;;;;;;;-0.20;69.41;99052.30;4343592;81;21249;-84
2021/03/07 23:50:11;;;;;;;87.77;41.43;;;;;;;-0.25;69.54;99043.80;4342767;81;21196;-85
2021/03/07 23:56:13;;;;;;;98.77;44.67;;;;;;;-0.33;70.09;99037.02;4341432;81;21334;-84
